Terminal Aerodrome Forecast
Issued by NWS

Home | Current Version | Previous Version | Text Only | Print | Product List | Glossary On
Versions: 1 2 3 4 5 6 7 8 9 10 11 12 13
000
FTUS45 KRIW 050523
TAFBPI
TAF
KBPI 050523Z 0506/0606 32006KT P6SM FEW100
     FM051100 VRB05KT P6SM SCT080 BKN110
     FM051900 20013G21KT P6SM VCSH SCT070 BKN090
     FM060200 33008KT P6SM SCT080 BKN100=

USA.gov is the U.S. government's official web portal to all federal, state and local government web resources and services.